Time;durP1;ratioP1;P1;durP2;ratioP2;P2;SDS_P1;SDS_P2;PMS_P1;PMS_P2;Temp;Humidity;BMP_temperature;BMP_pressure;BME280_temperature;BME280_humidity;BME280_pressure;Samples;Min_cycle;Max_cycle;Signal;HPM_P1;HPM_P2
2021/01/07 00:00:04;;;;;;;;;;;;;;;;;;5035326;28;20398;-84
2021/01/07 00:02:30;;;;;;;;;;;;;;;;;;5057582;28;20381;-82
2021/01/07 00:04:57;;;;;;;;;;;;;;;;;;5062914;28;20385;-83
2021/01/07 00:07:23;;;;;;;;;;;;;;;;;;5057463;28;20379;-84
2021/01/07 00:09:49;;;;;;;;;;;;;;;;;;5035109;28;20387;-85
2021/01/07 00:12:16;;;;;;;;;;;;;;;;;;5034788;28;20379;-84
2021/01/07 00:14:42;;;;;;;;;;;;;;;;;;5033927;28;20406;-84
2021/01/07 00:17:09;;;;;;;;;;;;;;;;;;5016035;28;20401;-85
2021/01/07 00:19:35;;;;;;;;;;;;;;;;;;5032214;28;20456;-83
2021/01/07 00:22:02;;;;;;;;;;;;;;;;;;5034711;28;20874;-85
2021/01/07 00:24:28;;;;;;;;;;;;;;;;;;5046265;28;20402;-85
2021/01/07 00:26:54;;;;;;;;;;;;;;;;;;5022491;28;20404;-85
2021/01/07 00:29:21;;;;;;;;;;;;;;;;;;5029849;28;20457;-85
2021/01/07 00:31:47;;;;;;;;;;;;;;;;;;5034790;28;20387;-85
2021/01/07 00:34:14;;;;;;;;;;;;;;;;;;5034132;28;20921;-85
2021/01/07 00:36:41;;;;;;;;;;;;;;;;;;5028704;28;20819;-85
2021/01/07 00:39:07;;;;;;;;;;;;;;;;;;5034545;28;20866;-86
2021/01/07 00:41:33;;;;;;;;;;;;;;;;;;5034783;28;20382;-85
2021/01/07 00:44:00;;;;;;;;;;;;;;;;;;5058528;22;20521;-83
2021/01/07 00:46:26;;;;;;;;;;;;;;;;;;5038809;28;20386;-84
2021/01/07 00:48:53;;;;;;;;;;;;;;;;;;5039916;28;20386;-83
2021/01/07 00:51:19;;;;;;;;;;;;;;;;;;5038325;28;20390;-83
2021/01/07 00:53:45;;;;;;;;;;;;;;;;;;5045208;28;20494;-83
2021/01/07 00:56:12;;;;;;;;;;;;;;;;;;5060879;28;20392;-83
2021/01/07 00:58:38;;;;;;;;;;;;;;;;;;5062884;28;20395;-84
2021/01/07 01:01:04;;;;;;;;;;;;;;;;;;5057980;28;20775;-84
2021/01/07 01:03:31;;;;;;;;;;;;;;;;;;5055663;28;20410;-83
2021/01/07 01:05:57;;;;;;;;;;;;;;;;;;5060360;28;20806;-84
2021/01/07 01:08:24;;;;;;;;;;;;;;;;;;5061558;28;20376;-84
2021/01/07 01:10:50;;;;;;;;;;;;;;;;;;5057051;28;20383;-84
2021/01/07 01:13:16;;;;;;;;;;;;;;;;;;5058854;28;20876;-84
2021/01/07 01:15:43;;;;;;;;;;;;;;;;;;5051131;28;20406;-83
2021/01/07 01:18:09;;;;;;;;;;;;;;;;;;5058303;28;20380;-84
2021/01/07 01:20:35;;;;;;;;;;;;;;;;;;5058682;28;20768;-84
2021/01/07 01:23:02;;;;;;;;;;;;;;;;;;5042960;28;20390;-84
2021/01/07 01:25:28;;;;;;;;;;;;;;;;;;5058044;28;20433;-86
2021/01/07 01:27:54;;;;;;;;;;;;;;;;;;5056300;28;20391;-83
2021/01/07 01:30:21;;;;;;;;;;;;;;;;;;5058195;28;20380;-84
2021/01/07 01:32:47;;;;;;;;;;;;;;;;;;5055751;28;20462;-84
2021/01/07 01:35:14;;;;;;;;;;;;;;;;;;5055596;28;20410;-84
2021/01/07 01:37:40;;;;;;;;;;;;;;;;;;5058897;28;20388;-84
2021/01/07 01:40:06;;;;;;;;;;;;;;;;;;5050769;28;20950;-84
2021/01/07 01:42:33;;;;;;;;;;;;;;;;;;5058827;28;21087;-85
2021/01/07 01:44:59;;;;;;;;;;;;;;;;;;5058770;28;20415;-84
2021/01/07 01:47:25;;;;;;;;;;;;;;;;;;5059507;28;20387;-84
2021/01/07 01:49:52;;;;;;;;;;;;;;;;;;5059711;28;20398;-84
2021/01/07 01:52:18;;;;;;;;;;;;;;;;;;5062641;28;20430;-84
2021/01/07 01:54:45;;;;;;;;;;;;;;;;;;5058160;28;20411;-85
2021/01/07 01:57:11;;;;;;;;;;;;;;;;;;5062849;28;20597;-84
2021/01/07 01:59:37;;;;;;;;;;;;;;;;;;5062593;28;20404;-85
2021/01/07 02:02:04;;;;;;;;;;;;;;;;;;5059869;28;20387;-84
2021/01/07 02:04:30;;;;;;;;;;;;;;;;;;5061618;28;20433;-84
2021/01/07 02:06:56;;;;;;;;;;;;;;;;;;5060488;28;20437;-85
2021/01/07 02:09:23;;;;;;;;;;;;;;;;;;5055954;28;20388;-84
2021/01/07 02:11:49;;;;;;;;;;;;;;;;;;5061782;28;20863;-84
2021/01/07 02:14:16;;;;;;;;;;;;;;;;;;5061746;28;20408;-84
2021/01/07 02:16:42;;;;;;;;;;;;;;;;;;5062051;28;20391;-85
2021/01/07 02:19:08;;;;;;;;;;;;;;;;;;5064607;28;20403;-84
2021/01/07 02:21:35;;;;;;;;;;;;;;;;;;5065728;28;20399;-85
2021/01/07 02:24:01;;;;;;;;;;;;;;;;;;5055275;28;20568;-85
2021/01/07 02:26:27;;;;;;;;;;;;;;;;;;5060917;28;20786;-85
2021/01/07 02:28:54;;;;;;;;;;;;;;;;;;5056609;28;20427;-84
2021/01/07 02:31:20;;;;;;;;;;;;;;;;;;5058597;28;20445;-84
2021/01/07 02:33:46;;;;;;;;;;;;;;;;;;5046785;28;20882;-84
2021/01/07 02:36:13;;;;;;;;;;;;;;;;;;5055450;28;20376;-85
2021/01/07 02:38:39;;;;;;;;;;;;;;;;;;5067320;28;20384;-84
2021/01/07 02:41:06;;;;;;;;;;;;;;;;;;5064492;28;20883;-85
2021/01/07 02:43:32;;;;;;;;;;;;;;;;;;5062437;28;20407;-84
2021/01/07 02:45:58;;;;;;;;;;;;;;;;;;5062983;28;20399;-85
2021/01/07 02:48:25;;;;;;;;;;;;;;;;;;5049956;28;20798;-84
2021/01/07 02:50:51;;;;;;;;;;;;;;;;;;5062632;28;20492;-85
2021/01/07 02:53:17;;;;;;;;;;;;;;;;;;5059691;28;20403;-84
2021/01/07 02:55:44;;;;;;;;;;;;;;;;;;5057650;28;20383;-84
2021/01/07 02:58:10;;;;;;;;;;;;;;;;;;5061115;28;20388;-84
2021/01/07 03:00:37;;;;;;;;;;;;;;;;;;5058732;28;20400;-84
2021/01/07 03:03:03;;;;;;;;;;;;;;;;;;5058215;28;20411;-84
2021/01/07 03:05:30;;;;;;;;;;;;;;;;;;5060595;28;20388;-84
2021/01/07 03:07:56;;;;;;;;;;;;;;;;;;5058065;28;20392;-84
2021/01/07 03:10:22;;;;;;;;;;;;;;;;;;5048981;28;20430;-84
2021/01/07 03:12:49;;;;;;;;;;;;;;;;;;5056295;28;20376;-84
2021/01/07 03:15:15;;;;;;;;;;;;;;;;;;5052483;28;20430;-84
2021/01/07 03:17:42;;;;;;;;;;;;;;;;;;5055628;28;20396;-84
2021/01/07 03:20:08;;;;;;;;;;;;;;;;;;5064319;28;20408;-84
2021/01/07 03:22:35;;;;;;;;;;;;;;;;;;5070842;28;20414;-83
2021/01/07 03:25:01;;;;;;;;;;;;;;;;;;5076588;28;20411;-83
2021/01/07 03:27:27;;;;;;;;;;;;;;;;;;5075334;28;20380;-84
2021/01/07 03:29:54;;;;;;;;;;;;;;;;;;5060520;28;20429;-84
2021/01/07 03:32:22;;;;;;;;;;;;;;;;;;5054267;28;20779;-84
2021/01/07 03:34:48;;;;;;;;;;;;;;;;;;5061970;28;20404;-85
2021/01/07 03:37:14;;;;;;;;;;;;;;;;;;5061258;28;20395;-85
2021/01/07 03:39:41;;;;;;;;;;;;;;;;;;5054460;28;20404;-84
2021/01/07 03:42:07;;;;;;;;;;;;;;;;;;5056976;28;20921;-84
2021/01/07 03:44:33;;;;;;;;;;;;;;;;;;5058732;28;20411;-84
2021/01/07 03:47:00;;;;;;;;;;;;;;;;;;5059570;28;20463;-85
2021/01/07 03:49:26;;;;;;;;;;;;;;;;;;5059153;28;20390;-84
2021/01/07 03:51:52;;;;;;;;;;;;;;;;;;5060072;28;20384;-85
2021/01/07 03:54:19;;;;;;;;;;;;;;;;;;5059129;28;20393;-85
2021/01/07 03:56:45;;;;;;;;;;;;;;;;;;5058425;28;20379;-85
2021/01/07 03:59:12;;;;;;;;;;;;;;;;;;5055622;28;20391;-84
2021/01/07 04:01:38;;;;;;;;;;;;;;;;;;5054229;28;20425;-84
2021/01/07 04:04:04;;;;;;;;;;;;;;;;;;5058932;28;20408;-85
2021/01/07 04:06:31;;;;;;;;;;;;;;;;;;5044371;28;20380;-84
2021/01/07 04:08:57;;;;;;;;;;;;;;;;;;5059074;28;20376;-84
2021/01/07 04:11:23;;;;;;;;;;;;;;;;;;5054298;28;20828;-84
2021/01/07 04:13:50;;;;;;;;;;;;;;;;;;5060767;28;20461;-84
2021/01/07 04:16:16;;;;;;;;;;;;;;;;;;5055587;28;20389;-84
2021/01/07 04:18:42;;;;;;;;;;;;;;;;;;5051710;28;20795;-84
2021/01/07 04:21:09;;;;;;;;;;;;;;;;;;5057424;28;20403;-84
2021/01/07 04:23:35;;;;;;;;;;;;;;;;;;5053781;28;20411;-85
2021/01/07 04:26:02;;;;;;;;;;;;;;;;;;5060592;28;20384;-84
2021/01/07 04:28:28;;;;;;;;;;;;;;;;;;5054028;28;20374;-84
2021/01/07 04:30:54;;;;;;;;;;;;;;;;;;5055338;28;20388;-84
2021/01/07 04:33:21;;;;;;;;;;;;;;;;;;5058503;28;20397;-84
2021/01/07 04:35:47;;;;;;;;;;;;;;;;;;5054707;28;20394;-85
2021/01/07 04:38:13;;;;;;;;;;;;;;;;;;5058074;28;20387;-84
2021/01/07 04:40:40;;;;;;;;;;;;;;;;;;5048530;28;20411;-85
2021/01/07 04:43:06;;;;;;;;;;;;;;;;;;5058471;28;20433;-84
2021/01/07 04:45:32;;;;;;;;;;;;;;;;;;5054799;28;20827;-84
2021/01/07 04:47:59;;;;;;;;;;;;;;;;;;5057105;28;20388;-83
2021/01/07 04:50:25;;;;;;;;;;;;;;;;;;5060638;28;20391;-86
2021/01/07 04:52:52;;;;;;;;;;;;;;;;;;5054381;28;20388;-86
2021/01/07 04:55:18;;;;;;;;;;;;;;;;;;5060041;28;20391;-86
2021/01/07 04:57:44;;;;;;;;;;;;;;;;;;5059442;28;20388;-85
2021/01/07 05:00:11;;;;;;;;;;;;;;;;;;5050448;28;20423;-84
2021/01/07 05:02:37;;;;;;;;;;;;;;;;;;5053707;28;20788;-86
2021/01/07 05:05:03;;;;;;;;;;;;;;;;;;5053999;28;20406;-86
2021/01/07 05:07:30;;;;;;;;;;;;;;;;;;5049387;28;20382;-86
2021/01/07 05:09:56;;;;;;;;;;;;;;;;;;5058978;28;20380;-86
2021/01/07 05:12:23;;;;;;;;;;;;;;;;;;5054164;28;20387;-83
2021/01/07 05:14:49;;;;;;;;;;;;;;;;;;5059509;28;20400;-86
2021/01/07 05:17:16;;;;;;;;;;;;;;;;;;5054458;28;20380;-86
2021/01/07 05:19:42;;;;;;;;;;;;;;;;;;5060646;28;20400;-86
2021/01/07 05:22:08;;;;;;;;;;;;;;;;;;5060036;28;20384;-86
2021/01/07 05:24:35;;;;;;;;;;;;;;;;;;5062541;28;20814;-86
2021/01/07 05:27:01;;;;;;;;;;;;;;;;;;5063253;28;20391;-86
2021/01/07 05:29:27;;;;;;;;;;;;;;;;;;5064799;28;20406;-86
2021/01/07 05:31:54;;;;;;;;;;;;;;;;;;5061917;28;20382;-84
2021/01/07 05:34:20;;;;;;;;;;;;;;;;;;5061154;28;20400;-83
2021/01/07 05:36:47;;;;;;;;;;;;;;;;;;5059580;28;20386;-86
2021/01/07 05:39:13;;;;;;;;;;;;;;;;;;5059446;28;20391;-86
2021/01/07 05:41:39;;;;;;;;;;;;;;;;;;5055603;28;20417;-86
2021/01/07 05:44:06;;;;;;;;;;;;;;;;;;5048543;28;20411;-86
2021/01/07 05:46:32;;;;;;;;;;;;;;;;;;5062348;28;20436;-84
2021/01/07 05:48:58;;;;;;;;;;;;;;;;;;5064139;28;20835;-84
2021/01/07 05:51:25;;;;;;;;;;;;;;;;;;5057370;28;20773;-84
2021/01/07 05:53:51;;;;;;;;;;;;;;;;;;5061534;28;21017;-84
2021/01/07 05:56:18;;;;;;;;;;;;;;;;;;5063426;28;20453;-84
2021/01/07 05:58:44;;;;;;;;;;;;;;;;;;5071049;28;20843;-84
2021/01/07 06:01:10;;;;;;;;;;;;;;;;;;5063126;28;20434;-84
2021/01/07 06:03:37;;;;;;;;;;;;;;;;;;5063985;28;20403;-84
2021/01/07 06:06:03;;;;;;;;;;;;;;;;;;5063319;28;20433;-84
2021/01/07 06:08:29;;;;;;;;;;;;;;;;;;5063279;28;20856;-84
2021/01/07 06:10:56;;;;;;;;;;;;;;;;;;5055263;28;20388;-84
2021/01/07 06:13:22;;;;;;;;;;;;;;;;;;5062097;28;20396;-84
2021/01/07 06:15:49;;;;;;;;;;;;;;;;;;5061748;28;20674;-84
2021/01/07 06:18:15;;;;;;;;;;;;;;;;;;5046009;28;20447;-84
2021/01/07 06:20:41;;;;;;;;;;;;;;;;;;5058350;28;20427;-84
2021/01/07 06:23:08;;;;;;;;;;;;;;;;;;5065019;28;20391;-84
2021/01/07 06:25:34;;;;;;;;;;;;;;;;;;5062640;28;20384;-83
2021/01/07 06:28:00;;;;;;;;;;;;;;;;;;5064194;28;20376;-86
2021/01/07 06:30:27;;;;;;;;;;;;;;;;;;5063202;28;20381;-87
2021/01/07 06:32:54;;;;;;;;;;;;;;;;;;5040783;28;20391;-84
2021/01/07 06:35:20;;;;;;;;;;;;;;;;;;5059528;28;20445;-84
2021/01/07 06:37:46;;;;;;;;;;;;;;;;;;5053817;28;20744;-84
2021/01/07 06:40:13;;;;;;;;;;;;;;;;;;5060846;28;20427;-84
2021/01/07 06:42:39;;;;;;;;;;;;;;;;;;5060177;28;20415;-84
2021/01/07 06:45:05;;;;;;;;;;;;;;;;;;5054602;28;20414;-84
2021/01/07 06:47:32;;;;;;;;;;;;;;;;;;5063777;28;20380;-84
2021/01/07 06:49:58;;;;;;;;;;;;;;;;;;5063154;28;20384;-84
2021/01/07 06:52:25;;;;;;;;;;;;;;;;;;5052128;28;20399;-84
2021/01/07 06:54:51;;;;;;;;;;;;;;;;;;5057177;28;20442;-83
2021/01/07 06:57:17;;;;;;;;;;;;;;;;;;5061501;28;20386;-84
2021/01/07 06:59:44;;;;;;;;;;;;;;;;;;5062703;28;20390;-84
2021/01/07 07:02:10;;;;;;;;;;;;;;;;;;5067521;28;20407;-84
2021/01/07 07:04:37;;;;;;;;;;;;;;;;;;5074343;28;20400;-84
2021/01/07 07:07:03;;;;;;;;;;;;;;;;;;5076280;28;20395;-84
2021/01/07 07:09:29;;;;;;;;;;;;;;;;;;5072106;28;20380;-84
2021/01/07 07:11:56;;;;;;;;;;;;;;;;;;5069325;28;20863;-84
2021/01/07 07:14:22;;;;;;;;;;;;;;;;;;5072971;28;20404;-85
2021/01/07 07:16:49;;;;;;;;;;;;;;;;;;5070005;28;20467;-83
2021/01/07 07:19:15;;;;;;;;;;;;;;;;;;5069611;28;20388;-83
2021/01/07 07:21:42;;;;;;;;;;;;;;;;;;5062661;28;20407;-83
2021/01/07 07:24:09;;;;;;;;;;;;;;;;;;5061660;28;20410;-84
2021/01/07 07:26:36;;;;;;;;;;;;;;;;;;5059511;28;20383;-84
2021/01/07 07:29:02;;;;;;;;;;;;;;;;;;5057204;28;20380;-84
2021/01/07 07:31:28;;;;;;;;;;;;;;;;;;5062911;28;20382;-84
2021/01/07 07:33:55;;;;;;;;;;;;;;;;;;5063612;28;20400;-84
2021/01/07 07:36:22;;;;;;;;;;;;;;;;;;5064085;28;20381;-84
2021/01/07 07:38:48;;;;;;;;;;;;;;;;;;5064880;28;20393;-84
2021/01/07 07:41:16;;;;;;;;;;;;;;;;;;5058136;28;21493;-84
2021/01/07 07:43:42;;;;;;;;;;;;;;;;;;5065201;28;20853;-84
2021/01/07 07:46:09;;;;;;;;;;;;;;;;;;5066123;28;20387;-83
2021/01/07 07:48:36;;;;;;;;;;;;;;;;;;5064164;28;20376;-84
2021/01/07 07:51:02;;;;;;;;;;;;;;;;;;5071601;28;20388;-84
2021/01/07 07:53:29;;;;;;;;;;;;;;;;;;5070862;28;20410;-85
2021/01/07 07:55:55;;;;;;;;;;;;;;;;;;5068799;28;20384;-84
2021/01/07 07:58:22;;;;;;;;;;;;;;;;;;5066279;28;20395;-84
2021/01/07 08:00:48;;;;;;;;;;;;;;;;;;5068665;28;20444;-84
2021/01/07 08:03:15;;;;;;;;;;;;;;;;;;5067859;28;20478;-84
2021/01/07 08:05:41;;;;;;;;;;;;;;;;;;5057636;28;20449;-84
2021/01/07 08:08:08;;;;;;;;;;;;;;;;;;5062617;28;20376;-84
2021/01/07 08:10:34;;;;;;;;;;;;;;;;;;5060239;28;20392;-86
2021/01/07 08:13:00;;;;;;;;;;;;;;;;;;5070186;28;20380;-85
2021/01/07 08:15:27;;;;;;;;;;;;;;;;;;5060541;28;20376;-86
2021/01/07 08:17:54;;;;;;;;;;;;;;;;;;5059505;28;20451;-84
2021/01/07 08:20:26;;;;;;;;;;;;;;;;;;5059166;28;20400;-87
2021/01/07 08:22:52;;;;;;;;;;;;;;;;;;5047915;28;20725;-83
2021/01/07 08:25:19;;;;;;;;;;;;;;;;;;5060104;28;20391;-83
2021/01/07 08:27:45;;;;;;;;;;;;;;;;;;5056871;28;20764;-84
2021/01/07 08:30:11;;;;;;;;;;;;;;;;;;5056070;28;20390;-84
2021/01/07 08:32:38;;;;;;;;;;;;;;;;;;5044253;28;20395;-84
2021/01/07 08:35:05;;;;;;;;;;;;;;;;;;5048697;28;20400;-87
2021/01/07 08:37:32;;;;;;;;;;;;;;;;;;5059937;28;20391;-84
2021/01/07 08:39:58;;;;;;;;;;;;;;;;;;5060747;28;20384;-84
2021/01/07 08:42:25;;;;;;;;;;;;;;;;;;5058140;28;20391;-84
2021/01/07 08:44:51;;;;;;;;;;;;;;;;;;5062581;28;20442;-85
2021/01/07 08:47:17;;;;;;;;;;;;;;;;;;5064478;28;20776;-84
2021/01/07 08:49:44;;;;;;;;;;;;;;;;;;5045812;28;20387;-84
2021/01/07 08:52:10;;;;;;;;;;;;;;;;;;5059223;28;20380;-83
2021/01/07 08:54:37;;;;;;;;;;;;;;;;;;5060091;28;20433;-83
2021/01/07 08:57:03;;;;;;;;;;;;;;;;;;5059938;28;20387;-84
2021/01/07 08:59:30;;;;;;;;;;;;;;;;;;5053926;28;20422;-85
2021/01/07 09:01:56;;;;;;;;;;;;;;;;;;5040337;28;20414;-84
2021/01/07 09:04:22;;;;;;;;;;;;;;;;;;5050298;28;20396;-84
2021/01/07 09:06:49;;;;;;;;;;;;;;;;;;5058547;28;20755;-84
2021/01/07 09:09:15;;;;;;;;;;;;;;;;;;5041824;28;20391;-84
2021/01/07 09:11:41;;;;;;;;;;;;;;;;;;5045184;28;20380;-83
2021/01/07 09:14:08;;;;;;;;;;;;;;;;;;5060618;28;20426;-82
2021/01/07 09:16:34;;;;;;;;;;;;;;;;;;5052753;28;20384;-80
2021/01/07 09:19:01;;;;;;;;;;;;;;;;;;5053422;28;20392;-83
2021/01/07 09:21:27;;;;;;;;;;;;;;;;;;5043460;28;20414;-81
2021/01/07 09:23:54;;;;;;;;;;;;;;;;;;5056365;28;20803;-83
2021/01/07 09:26:20;;;;;;;;;;;;;;;;;;5059092;28;20384;-81
2021/01/07 09:28:46;;;;;;;;;;;;;;;;;;5051319;28;20388;-81
2021/01/07 09:31:13;;;;;;;;;;;;;;;;;;5054310;28;20376;-83
2021/01/07 09:33:39;;;;;;;;;;;;;;;;;;5063422;28;20432;-84
2021/01/07 09:36:06;;;;;;;;;;;;;;;;;;5044541;28;20383;-84
2021/01/07 09:38:33;;;;;;;;;;;;;;;;;;5033648;28;20393;-85
2021/01/07 09:40:59;;;;;;;;;;;;;;;;;;5034303;28;20406;-89
2021/01/07 09:43:26;;;;;;;;;;;;;;;;;;5046066;28;20422;-84
2021/01/07 09:45:52;;;;;;;;;;;;;;;;;;5058625;28;20678;-82
2021/01/07 09:48:18;;;;;;;;;;;;;;;;;;5066650;28;20395;-82
2021/01/07 09:50:45;;;;;;;;;;;;;;;;;;5055550;28;20441;-83
2021/01/07 09:53:11;;;;;;;;;;;;;;;;;;5054566;28;20384;-81
2021/01/07 09:55:37;;;;;;;;;;;;;;;;;;5055589;28;20383;-83
2021/01/07 09:58:04;;;;;;;;;;;;;;;;;;5055468;28;20392;-83
2021/01/07 10:00:30;;;;;;;;;;;;;;;;;;5054888;28;20816;-83
2021/01/07 10:02:57;;;;;;;;;;;;;;;;;;5056175;28;20385;-83
2021/01/07 10:05:23;;;;;;;;;;;;;;;;;;5057725;28;20376;-83
2021/01/07 10:07:49;;;;;;;;;;;;;;;;;;5056049;28;20434;-83
2021/01/07 10:10:16;;;;;;;;;;;;;;;;;;5061326;28;20740;-83
2021/01/07 10:12:43;;;;;;;;;;;;;;;;;;5062163;28;20447;-83
2021/01/07 10:15:09;;;;;;;;;;;;;;;;;;5064437;28;20407;-84
2021/01/07 10:17:36;;;;;;;;;;;;;;;;;;5063296;28;20386;-84
2021/01/07 10:20:02;;;;;;;;;;;;;;;;;;5063320;28;20418;-84
2021/01/07 10:22:28;;;;;;;;;;;;;;;;;;5062254;28;20394;-83
2021/01/07 10:24:55;;;;;;;;;;;;;;;;;;5066033;28;20415;-84
2021/01/07 10:27:22;;;;;;;;;;;;;;;;;;5060380;28;20388;-83
2021/01/07 10:29:48;;;;;;;;;;;;;;;;;;5059368;28;20443;-83
2021/01/07 10:32:15;;;;;;;;;;;;;;;;;;5060321;28;20402;-83
2021/01/07 10:34:41;;;;;;;;;;;;;;;;;;5058802;28;20455;-83
2021/01/07 10:37:07;;;;;;;;;;;;;;;;;;5059437;28;20384;-84
2021/01/07 10:39:34;;;;;;;;;;;;;;;;;;5060133;28;20403;-84
2021/01/07 10:42:00;;;;;;;;;;;;;;;;;;5058946;28;20396;-83
2021/01/07 10:44:27;;;;;;;;;;;;;;;;;;5061862;28;20415;-84
2021/01/07 10:46:54;;;;;;;;;;;;;;;;;;5065106;28;20408;-85
2021/01/07 10:49:21;;;;;;;;;;;;;;;;;;5073189;28;20364;-82
2021/01/07 10:51:47;;;;;;;;;;;;;;;;;;5081506;28;20376;-80
2021/01/07 10:54:13;;;;;;;;;;;;;;;;;;5062622;28;20422;-85
2021/01/07 10:56:43;;;;;;;;;;;;;;;;;;5060096;28;20383;-83
2021/01/07 10:59:10;;;;;;;;;;;;;;;;;;5063986;28;20471;-84
2021/01/07 11:01:36;;;;;;;;;;;;;;;;;;5057950;28;20400;-83
2021/01/07 11:04:02;;;;;;;;;;;;;;;;;;5054510;28;20422;-85
2021/01/07 11:06:29;;;;;;;;;;;;;;;;;;5061237;28;20388;-85
2021/01/07 11:08:55;;;;;;;;;;;;;;;;;;5061489;28;20384;-84
2021/01/07 11:11:22;;;;;;;;;;;;;;;;;;5059674;28;20410;-84
2021/01/07 11:13:48;;;;;;;;;;;;;;;;;;5057956;28;20439;-84
2021/01/07 11:16:14;;;;;;;;;;;;;;;;;;5059569;28;20387;-84
2021/01/07 11:18:41;;;;;;;;;;;;;;;;;;5063755;28;20415;-85
2021/01/07 11:21:07;;;;;;;;;;;;;;;;;;5059639;28;20419;-85
2021/01/07 11:23:34;;;;;;;;;;;;;;;;;;5059171;28;20404;-84
2021/01/07 11:26:00;;;;;;;;;;;;;;;;;;5061649;28;20391;-84
2021/01/07 11:28:27;;;;;;;;;;;;;;;;;;5061389;28;20434;-84
2021/01/07 11:30:53;;;;;;;;;;;;;;;;;;5052574;28;20491;-84
2021/01/07 11:33:20;;;;;;;;;;;;;;;;;;5060823;28;20410;-85
2021/01/07 11:35:46;;;;;;;;;;;;;;;;;;5064827;28;20486;-84
2021/01/07 11:38:12;;;;;;;;;;;;;;;;;;5047694;28;20866;-84
2021/01/07 11:40:39;;;;;;;;;;;;;;;;;;5059557;28;20404;-85
2021/01/07 11:43:05;;;;;;;;;;;;;;;;;;5061402;28;20829;-85
2021/01/07 11:45:32;;;;;;;;;;;;;;;;;;5061421;28;20368;-84
2021/01/07 11:47:58;;;;;;;;;;;;;;;;;;5063702;28;20388;-84
2021/01/07 11:50:25;;;;;;;;;;;;;;;;;;5059156;28;20785;-84
2021/01/07 11:52:51;;;;;;;;;;;;;;;;;;5061610;28;20395;-84
2021/01/07 11:55:17;;;;;;;;;;;;;;;;;;5060624;28;20400;-84
2021/01/07 11:57:44;;;;;;;;;;;;;;;;;;5058661;28;20399;-83
2021/01/07 12:00:13;;;;;;;;;;;;;;;;;;5059291;28;20400;-84
2021/01/07 12:02:39;;;;;;;;;;;;;;;;;;5061308;28;20425;-86
2021/01/07 12:05:05;;;;;;;;;;;;;;;;;;5068211;28;20402;-84
2021/01/07 12:07:32;;;;;;;;;;;;;;;;;;5066453;28;20877;-86
2021/01/07 12:09:58;;;;;;;;;;;;;;;;;;5064624;28;20384;-83
2021/01/07 12:12:24;;;;;;;;;;;;;;;;;;5064868;28;20391;-84
2021/01/07 12:14:51;;;;;;;;;;;;;;;;;;5061966;28;20803;-84
2021/01/07 12:17:17;;;;;;;;;;;;;;;;;;5063678;28;20387;-84
2021/01/07 12:19:44;;;;;;;;;;;;;;;;;;5060038;28;20418;-84
2021/01/07 12:22:14;;;;;;;;;;;;;;;;;;5061822;28;20408;-84
2021/01/07 12:24:40;;;;;;;;;;;;;;;;;;5065019;28;20953;-84
2021/01/07 12:27:07;;;;;;;;;;;;;;;;;;5068680;28;20381;-84
2021/01/07 12:29:33;;;;;;;;;;;;;;;;;;5065317;28;20399;-83
2021/01/07 12:32:00;;;;;;;;;;;;;;;;;;5068265;28;20382;-83
2021/01/07 12:34:26;;;;;;;;;;;;;;;;;;5062250;28;20884;-84
2021/01/07 12:36:52;;;;;;;;;;;;;;;;;;5072746;28;20406;-85
2021/01/07 12:39:19;;;;;;;;;;;;;;;;;;5066576;28;22350;-85
2021/01/07 12:41:46;;;;;;;;;;;;;;;;;;5056715;28;20408;-83
2021/01/07 12:44:12;;;;;;;;;;;;;;;;;;5062486;28;20409;-82
2021/01/07 12:46:38;;;;;;;;;;;;;;;;;;5061985;28;20904;-85
2021/01/07 12:49:05;;;;;;;;;;;;;;;;;;5055963;28;20376;-83
2021/01/07 12:51:31;;;;;;;;;;;;;;;;;;5055542;28;20372;-83
2021/01/07 12:53:58;;;;;;;;;;;;;;;;;;5037129;28;20435;-82
2021/01/07 12:56:25;;;;;;;;;;;;;;;;;;5042295;28;20376;-85
2021/01/07 12:58:51;;;;;;;;;;;;;;;;;;5055497;28;20886;-85
2021/01/07 13:01:18;;;;;;;;;;;;;;;;;;5058297;28;20428;-83
2021/01/07 13:03:44;;;;;;;;;;;;;;;;;;5058846;28;20407;-86
2021/01/07 13:06:11;;;;;;;;;;;;;;;;;;5058838;28;20407;-85
2021/01/07 13:08:37;;;;;;;;;;;;;;;;;;5055430;28;20438;-84
2021/01/07 13:11:03;;;;;;;;;;;;;;;;;;5051452;28;20378;-84
2021/01/07 13:13:30;;;;;;;;;;;;;;;;;;5037849;28;20403;-83
2021/01/07 13:15:56;;;;;;;;;;;;;;;;;;5037948;28;20378;-83
2021/01/07 13:18:24;;;;;;;;;;;;;;;;;;5043524;28;20405;-84
2021/01/07 13:20:50;;;;;;;;;;;;;;;;;;5059019;28;20457;-84
2021/01/07 13:23:17;;;;;;;;;;;;;;;;;;5058535;28;20404;-84
2021/01/07 13:25:43;;;;;;;;;;;;;;;;;;5057986;28;20364;-84
2021/01/07 13:28:09;;;;;;;;;;;;;;;;;;5058723;28;20392;-84
2021/01/07 13:30:36;;;;;;;;;;;;;;;;;;5058583;28;20395;-85
2021/01/07 13:33:02;;;;;;;;;;;;;;;;;;5059106;28;20430;-87
2021/01/07 13:35:29;;;;;;;;;;;;;;;;;;5053147;28;20386;-84
2021/01/07 13:37:55;;;;;;;;;;;;;;;;;;5041817;28;20369;-85
2021/01/07 13:40:21;;;;;;;;;;;;;;;;;;5059158;28;20454;-84
2021/01/07 13:42:48;;;;;;;;;;;;;;;;;;5057520;28;20384;-83
2021/01/07 13:45:14;;;;;;;;;;;;;;;;;;5042524;28;20406;-83
2021/01/07 13:47:41;;;;;;;;;;;;;;;;;;5048488;28;20379;-83
2021/01/07 13:50:09;;;;;;;;;;;;;;;;;;5045572;28;20370;-83
2021/01/07 13:52:36;;;;;;;;;;;;;;;;;;5041702;28;20382;-83
2021/01/07 13:55:03;;;;;;;;;;;;;;;;;;5043078;28;20426;-83
2021/01/07 13:57:30;;;;;;;;;;;;;;;;;;5044131;28;20451;-83
2021/01/07 13:59:56;;;;;;;;;;;;;;;;;;5043576;28;20398;-84
2021/01/07 14:02:23;;;;;;;;;;;;;;;;;;5047591;28;20375;-84
2021/01/07 14:04:49;;;;;;;;;;;;;;;;;;5051967;28;20438;-85
2021/01/07 14:07:17;;;;;;;;;;;;;;;;;;5052182;28;20399;-83
2021/01/07 14:09:43;;;;;;;;;;;;;;;;;;5052113;28;20371;-84
2021/01/07 14:12:10;;;;;;;;;;;;;;;;;;5041543;28;20371;-83
2021/01/07 14:14:37;;;;;;;;;;;;;;;;;;5040882;28;20407;-83
2021/01/07 14:17:04;;;;;;;;;;;;;;;;;;5040071;28;20391;-85
2021/01/07 14:19:30;;;;;;;;;;;;;;;;;;5040700;28;20386;-84
2021/01/07 14:21:57;;;;;;;;;;;;;;;;;;5041888;28;20402;-82
2021/01/07 14:24:23;;;;;;;;;;;;;;;;;;5043602;28;20409;-83
2021/01/07 14:26:50;;;;;;;;;;;;;;;;;;5040861;28;20386;-83
2021/01/07 14:29:16;;;;;;;;;;;;;;;;;;5040190;28;20728;-83
2021/01/07 14:31:43;;;;;;;;;;;;;;;;;;5040586;28;20375;-84
2021/01/07 14:34:10;;;;;;;;;;;;;;;;;;5039827;28;20410;-83
2021/01/07 14:36:37;;;;;;;;;;;;;;;;;;5041907;28;20382;-84
2021/01/07 14:39:03;;;;;;;;;;;;;;;;;;5039487;28;20383;-83
2021/01/07 14:41:30;;;;;;;;;;;;;;;;;;5041004;28;20396;-83
2021/01/07 14:43:56;;;;;;;;;;;;;;;;;;5049511;28;20433;-84
2021/01/07 14:46:24;;;;;;;;;;;;;;;;;;5048020;28;20391;-83
2021/01/07 14:48:51;;;;;;;;;;;;;;;;;;5044650;28;20433;-83
2021/01/07 14:51:17;;;;;;;;;;;;;;;;;;5046105;28;20830;-82
2021/01/07 14:53:44;;;;;;;;;;;;;;;;;;5050194;28;20421;-83
2021/01/07 14:56:10;;;;;;;;;;;;;;;;;;5054006;28;20411;-81
2021/01/07 14:58:37;;;;;;;;;;;;;;;;;;5046792;28;20414;-85
2021/01/07 15:01:03;;;;;;;;;;;;;;;;;;5040942;28;20434;-82
2021/01/07 15:03:30;;;;;;;;;;;;;;;;;;5037664;28;20702;-81
2021/01/07 15:05:56;;;;;;;;;;;;;;;;;;5046687;28;20742;-84
2021/01/07 15:08:23;;;;;;;;;;;;;;;;;;5040005;28;20394;-84
2021/01/07 15:10:52;;;;;;;;;;;;;;;;;;5039153;28;21109;-84
2021/01/07 15:13:18;;;;;;;;;;;;;;;;;;5041177;28;20417;-84
2021/01/07 15:15:45;;;;;;;;;;;;;;;;;;5043234;28;20392;-82
2021/01/07 15:18:11;;;;;;;;;;;;;;;;;;5045597;28;20375;-84
2021/01/07 15:20:38;;;;;;;;;;;;;;;;;;5044219;28;20407;-83
2021/01/07 15:23:04;;;;;;;;;;;;;;;;;;5037057;28;20393;-82
2021/01/07 15:25:30;;;;;;;;;;;;;;;;;;5040356;28;20402;-82
2021/01/07 15:27:57;;;;;;;;;;;;;;;;;;5033432;28;20412;-83
2021/01/07 15:30:35;;;;;;;;;;;;;;;;;;5038901;28;20391;-82
2021/01/07 15:33:06;;;;;;;;;;;;;;;;;;5036332;28;20405;-82
2021/01/07 15:35:34;;;;;;;;;;;;;;;;;;5037369;28;20744;-82
2021/01/07 15:38:00;;;;;;;;;;;;;;;;;;5041227;28;20402;-85
2021/01/07 15:43:09;;;;;;;;;;;;;;;;;;5041917;28;20383;-85
2021/01/07 15:45:36;;;;;;;;;;;;;;;;;;5060556;28;20841;-85
2021/01/07 15:48:02;;;;;;;;;;;;;;;;;;5060354;28;20407;-84
2021/01/07 15:50:29;;;;;;;;;;;;;;;;;;5059895;28;20383;-82
2021/01/07 15:52:55;;;;;;;;;;;;;;;;;;5059350;28;20372;-82
2021/01/07 15:55:21;;;;;;;;;;;;;;;;;;5060550;28;20379;-82
2021/01/07 15:57:48;;;;;;;;;;;;;;;;;;5060781;28;20403;-82
2021/01/07 16:00:14;;;;;;;;;;;;;;;;;;5059633;28;20376;-82
2021/01/07 16:02:41;;;;;;;;;;;;;;;;;;5060543;28;20815;-83
2021/01/07 16:05:08;;;;;;;;;;;;;;;;;;5059401;28;20508;-83
2021/01/07 16:07:34;;;;;;;;;;;;;;;;;;5061824;28;20384;-83
2021/01/07 16:10:02;;;;;;;;;;;;;;;;;;5064334;28;20377;-83
2021/01/07 16:12:28;;;;;;;;;;;;;;;;;;5060246;28;20380;-82
2021/01/07 16:14:55;;;;;;;;;;;;;;;;;;5063200;28;20411;-83
2021/01/07 16:17:24;;;;;;;;;;;;;;;;;;5064335;28;20388;-82
2021/01/07 16:19:50;;;;;;;;;;;;;;;;;;5063908;28;20908;-83
2021/01/07 16:22:17;;;;;;;;;;;;;;;;;;5058093;28;20399;-82
2021/01/07 16:24:43;;;;;;;;;;;;;;;;;;5060437;28;20494;-84
2021/01/07 16:27:09;;;;;;;;;;;;;;;;;;5061760;28;20833;-84
2021/01/07 16:29:36;;;;;;;;;;;;;;;;;;5058681;28;20376;-82
2021/01/07 16:32:02;;;;;;;;;;;;;;;;;;5057744;28;20376;-82
2021/01/07 16:34:29;;;;;;;;;;;;;;;;;;5058425;28;20426;-82
2021/01/07 16:36:55;;;;;;;;;;;;;;;;;;5057720;28;20779;-81
2021/01/07 16:39:21;;;;;;;;;;;;;;;;;;5056596;28;20377;-82
2021/01/07 16:41:48;;;;;;;;;;;;;;;;;;5057225;28;20407;-83